sensor_id;sensor_type;location;lat;lon;timestamp;P1;durP1;ratioP1;P2;durP2;ratioP2
80231;SDS011;69541;42.138;24.742;2023-05-10T00:00:11;4.35;;;3.05;;
80231;SDS011;69541;42.138;24.742;2023-05-10T00:02:37;5.72;;;3.33;;
80231;SDS011;69541;42.138;24.742;2023-05-10T00:05:03;4.82;;;3.25;;
80231;SDS011;69541;42.138;24.742;2023-05-10T00:07:30;3.90;;;3.20;;
80231;SDS011;69541;42.138;24.742;2023-05-10T00:09:55;3.28;;;2.97;;
80231;SDS011;69541;42.138;24.742;2023-05-10T00:12:21;3.88;;;3.00;;
80231;SDS011;69541;42.138;24.742;2023-05-10T00:14:46;5.30;;;3.40;;
80231;SDS011;69541;42.138;24.742;2023-05-10T00:17:12;4.60;;;3.00;;
80231;SDS011;69541;42.138;24.742;2023-05-10T00:19:38;3.92;;;3.05;;
80231;SDS011;69541;42.138;24.742;2023-05-10T00:22:04;3.85;;;3.17;;
80231;SDS011;69541;42.138;24.742;2023-05-10T00:24:29;4.43;;;2.80;;
80231;SDS011;69541;42.138;24.742;2023-05-10T00:26:55;4.53;;;3.08;;
80231;SDS011;69541;42.138;24.742;2023-05-10T00:29:20;3.50;;;2.90;;
80231;SDS011;69541;42.138;24.742;2023-05-10T00:31:46;4.75;;;3.13;;
80231;SDS011;69541;42.138;24.742;2023-05-10T00:34:12;3.95;;;2.97;;
80231;SDS011;69541;42.138;24.742;2023-05-10T00:36:37;3.65;;;2.97;;
80231;SDS011;69541;42.138;24.742;2023-05-10T00:39:03;3.35;;;3.05;;
80231;SDS011;69541;42.138;24.742;2023-05-10T00:41:29;4.35;;;3.08;;
80231;SDS011;69541;42.138;24.742;2023-05-10T00:43:58;4.90;;;3.30;;
80231;SDS011;69541;42.138;24.742;2023-05-10T00:46:23;3.95;;;3.10;;
80231;SDS011;69541;42.138;24.742;2023-05-10T00:48:50;5.55;;;3.03;;
80231;SDS011;69541;42.138;24.742;2023-05-10T00:51:17;4.97;;;3.08;;
80231;SDS011;69541;42.138;24.742;2023-05-10T00:53:43;3.20;;;2.90;;
80231;SDS011;69541;42.138;24.742;2023-05-10T00:56:10;3.75;;;2.83;;
80231;SDS011;69541;42.138;24.742;2023-05-10T00:58:37;3.10;;;2.80;;
80231;SDS011;69541;42.138;24.742;2023-05-10T01:01:03;3.67;;;3.20;;
80231;SDS011;69541;42.138;24.742;2023-05-10T01:03:29;3.63;;;2.85;;
80231;SDS011;69541;42.138;24.742;2023-05-10T01:05:56;4.93;;;3.00;;
80231;SDS011;69541;42.138;24.742;2023-05-10T01:08:22;3.00;;;2.67;;
80231;SDS011;69541;42.138;24.742;2023-05-10T01:10:47;3.50;;;2.75;;
80231;SDS011;69541;42.138;24.742;2023-05-10T01:13:18;4.30;;;3.00;;
80231;SDS011;69541;42.138;24.742;2023-05-10T01:15:57;3.47;;;3.17;;
80231;SDS011;69541;42.138;24.742;2023-05-10T01:18:26;3.67;;;2.90;;
80231;SDS011;69541;42.138;24.742;2023-05-10T01:20:59;3.55;;;3.00;;
80231;SDS011;69541;42.138;24.742;2023-05-10T01:32:15;5.35;;;3.00;;
80231;SDS011;69541;42.138;24.742;2023-05-10T01:37:41;3.72;;;2.72;;
80231;SDS011;69541;42.138;24.742;2023-05-10T01:40:29;3.85;;;3.03;;
80231;SDS011;69541;42.138;24.742;2023-05-10T01:43:01;3.50;;;2.80;;
80231;SDS011;69541;42.138;24.742;2023-05-10T01:45:31;4.78;;;3.10;;
80231;SDS011;69541;42.138;24.742;2023-05-10T01:50:34;3.75;;;3.17;;
80231;SDS011;69541;42.138;24.742;2023-05-10T01:53:01;3.42;;;2.67;;
80231;SDS011;69541;42.138;24.742;2023-05-10T01:55:29;3.33;;;3.03;;
80231;SDS011;69541;42.138;24.742;2023-05-10T01:58:11;4.38;;;2.78;;
80231;SDS011;69541;42.138;24.742;2023-05-10T02:00:43;3.28;;;2.75;;
80231;SDS011;69541;42.138;24.742;2023-05-10T02:03:10;4.40;;;3.17;;
80231;SDS011;69541;42.138;24.742;2023-05-10T02:05:36;5.43;;;2.80;;
80231;SDS011;69541;42.138;24.742;2023-05-10T02:08:05;3.67;;;2.97;;
80231;SDS011;69541;42.138;24.742;2023-05-10T02:10:32;3.47;;;2.70;;
80231;SDS011;69541;42.138;24.742;2023-05-10T02:13:02;3.28;;;2.80;;
80231;SDS011;69541;42.138;24.742;2023-05-10T02:15:31;4.18;;;2.97;;
80231;SDS011;69541;42.138;24.742;2023-05-10T02:17:58;3.50;;;3.00;;
80231;SDS011;69541;42.138;24.742;2023-05-10T02:20:25;3.78;;;2.88;;
80231;SDS011;69541;42.138;24.742;2023-05-10T02:22:52;3.97;;;3.10;;
80231;SDS011;69541;42.138;24.742;2023-05-10T02:25:20;3.42;;;3.13;;
80231;SDS011;69541;42.138;24.742;2023-05-10T02:27:48;4.22;;;2.70;;
80231;SDS011;69541;42.138;24.742;2023-05-10T02:30:14;4.05;;;2.95;;
80231;SDS011;69541;42.138;24.742;2023-05-10T02:32:41;3.97;;;2.80;;
80231;SDS011;69541;42.138;24.742;2023-05-10T02:35:08;3.80;;;2.78;;
80231;SDS011;69541;42.138;24.742;2023-05-10T02:37:35;3.25;;;2.80;;
80231;SDS011;69541;42.138;24.742;2023-05-10T02:40:03;3.42;;;2.70;;
80231;SDS011;69541;42.138;24.742;2023-05-10T02:42:31;3.90;;;2.90;;
80231;SDS011;69541;42.138;24.742;2023-05-10T02:45:00;3.58;;;2.90;;
80231;SDS011;69541;42.138;24.742;2023-05-10T02:47:30;3.40;;;2.90;;
80231;SDS011;69541;42.138;24.742;2023-05-10T02:49:56;3.47;;;2.65;;
80231;SDS011;69541;42.138;24.742;2023-05-10T02:52:24;2.97;;;2.58;;
80231;SDS011;69541;42.138;24.742;2023-05-10T02:54:54;4.07;;;2.97;;
80231;SDS011;69541;42.138;24.742;2023-05-10T02:57:27;3.20;;;2.90;;
80231;SDS011;69541;42.138;24.742;2023-05-10T02:59:56;4.30;;;2.88;;
80231;SDS011;69541;42.138;24.742;2023-05-10T03:02:22;3.55;;;2.80;;
80231;SDS011;69541;42.138;24.742;2023-05-10T03:04:48;3.30;;;3.00;;
80231;SDS011;69541;42.138;24.742;2023-05-10T03:07:13;3.33;;;2.53;;
80231;SDS011;69541;42.138;24.742;2023-05-10T03:09:39;4.22;;;2.70;;
80231;SDS011;69541;42.138;24.742;2023-05-10T03:12:25;4.20;;;2.95;;
80231;SDS011;69541;42.138;24.742;2023-05-10T03:18:20;3.30;;;2.97;;
80231;SDS011;69541;42.138;24.742;2023-05-10T03:20:48;3.58;;;2.80;;
80231;SDS011;69541;42.138;24.742;2023-05-10T03:25:50;3.15;;;2.70;;
80231;SDS011;69541;42.138;24.742;2023-05-10T03:28:17;3.10;;;2.80;;
80231;SDS011;69541;42.138;24.742;2023-05-10T03:30:44;3.30;;;2.72;;
80231;SDS011;69541;42.138;24.742;2023-05-10T03:33:10;4.03;;;2.88;;
80231;SDS011;69541;42.138;24.742;2023-05-10T03:35:37;3.50;;;2.90;;
80231;SDS011;69541;42.138;24.742;2023-05-10T03:38:03;3.03;;;2.70;;
80231;SDS011;69541;42.138;24.742;2023-05-10T03:40:28;2.88;;;2.60;;
80231;SDS011;69541;42.138;24.742;2023-05-10T03:42:56;3.10;;;2.78;;
80231;SDS011;69541;42.138;24.742;2023-05-10T03:45:23;3.83;;;3.00;;
80231;SDS011;69541;42.138;24.742;2023-05-10T03:47:49;3.97;;;2.72;;
80231;SDS011;69541;42.138;24.742;2023-05-10T03:50:14;8.25;;;2.92;;
80231;SDS011;69541;42.138;24.742;2023-05-10T03:52:40;6.13;;;3.47;;
80231;SDS011;69541;42.138;24.742;2023-05-10T03:55:06;7.45;;;3.67;;
80231;SDS011;69541;42.138;24.742;2023-05-10T03:57:32;10.80;;;4.25;;
80231;SDS011;69541;42.138;24.742;2023-05-10T03:59:58;9.65;;;3.50;;
80231;SDS011;69541;42.138;24.742;2023-05-10T04:02:24;8.25;;;3.80;;
80231;SDS011;69541;42.138;24.742;2023-05-10T04:04:49;6.18;;;3.70;;
80231;SDS011;69541;42.138;24.742;2023-05-10T04:07:15;10.40;;;4.18;;
80231;SDS011;69541;42.138;24.742;2023-05-10T04:09:41;6.63;;;3.92;;
80231;SDS011;69541;42.138;24.742;2023-05-10T04:12:07;13.52;;;4.07;;
80231;SDS011;69541;42.138;24.742;2023-05-10T04:14:32;8.13;;;4.00;;
80231;SDS011;69541;42.138;24.742;2023-05-10T04:16:58;8.50;;;4.00;;
80231;SDS011;69541;42.138;24.742;2023-05-10T04:19:24;10.30;;;4.10;;
80231;SDS011;69541;42.138;24.742;2023-05-10T04:21:53;9.15;;;4.10;;
80231;SDS011;69541;42.138;24.742;2023-05-10T04:24:19;15.07;;;4.25;;
80231;SDS011;69541;42.138;24.742;2023-05-10T04:26:45;13.70;;;4.63;;
80231;SDS011;69541;42.138;24.742;2023-05-10T04:29:10;10.98;;;4.50;;
80231;SDS011;69541;42.138;24.742;2023-05-10T04:31:36;14.45;;;4.50;;
80231;SDS011;69541;42.138;24.742;2023-05-10T04:34:01;15.90;;;4.75;;
80231;SDS011;69541;42.138;24.742;2023-05-10T04:36:27;10.52;;;4.60;;
80231;SDS011;69541;42.138;24.742;2023-05-10T04:38:53;10.73;;;4.18;;
80231;SDS011;69541;42.138;24.742;2023-05-10T04:41:19;10.60;;;4.50;;
80231;SDS011;69541;42.138;24.742;2023-05-10T04:43:45;10.55;;;4.40;;
80231;SDS011;69541;42.138;24.742;2023-05-10T04:46:11;11.10;;;4.47;;
80231;SDS011;69541;42.138;24.742;2023-05-10T04:48:36;13.25;;;4.47;;
80231;SDS011;69541;42.138;24.742;2023-05-10T04:51:02;18.30;;;5.00;;
80231;SDS011;69541;42.138;24.742;2023-05-10T04:53:28;13.57;;;4.13;;
80231;SDS011;69541;42.138;24.742;2023-05-10T04:55:54;17.00;;;5.03;;
80231;SDS011;69541;42.138;24.742;2023-05-10T04:58:20;13.85;;;4.43;;
80231;SDS011;69541;42.138;24.742;2023-05-10T05:00:46;11.13;;;4.78;;
80231;SDS011;69541;42.138;24.742;2023-05-10T05:03:11;15.00;;;4.70;;
80231;SDS011;69541;42.138;24.742;2023-05-10T05:05:37;8.45;;;4.30;;
80231;SDS011;69541;42.138;24.742;2023-05-10T05:08:03;11.68;;;4.50;;
80231;SDS011;69541;42.138;24.742;2023-05-10T05:10:28;10.82;;;4.47;;
80231;SDS011;69541;42.138;24.742;2023-05-10T05:12:54;10.88;;;4.20;;
80231;SDS011;69541;42.138;24.742;2023-05-10T05:15:20;12.02;;;5.05;;
80231;SDS011;69541;42.138;24.742;2023-05-10T05:17:46;12.07;;;4.78;;
80231;SDS011;69541;42.138;24.742;2023-05-10T05:20:12;15.75;;;4.70;;
80231;SDS011;69541;42.138;24.742;2023-05-10T05:22:38;12.48;;;4.15;;
80231;SDS011;69541;42.138;24.742;2023-05-10T05:25:04;12.32;;;4.68;;
80231;SDS011;69541;42.138;24.742;2023-05-10T05:27:30;14.63;;;4.13;;
80231;SDS011;69541;42.138;24.742;2023-05-10T05:29:56;12.50;;;4.25;;
80231;SDS011;69541;42.138;24.742;2023-05-10T05:32:22;14.35;;;4.25;;
80231;SDS011;69541;42.138;24.742;2023-05-10T05:34:49;13.90;;;4.57;;
80231;SDS011;69541;42.138;24.742;2023-05-10T05:37:15;11.82;;;4.57;;
80231;SDS011;69541;42.138;24.742;2023-05-10T05:39:42;16.33;;;5.00;;
80231;SDS011;69541;42.138;24.742;2023-05-10T05:42:12;8.85;;;4.20;;
80231;SDS011;69541;42.138;24.742;2023-05-10T05:44:38;11.13;;;4.50;;
80231;SDS011;69541;42.138;24.742;2023-05-10T05:47:04;10.75;;;4.45;;
80231;SDS011;69541;42.138;24.742;2023-05-10T05:49:30;13.43;;;4.78;;
80231;SDS011;69541;42.138;24.742;2023-05-10T05:52:03;10.55;;;4.32;;
80231;SDS011;69541;42.138;24.742;2023-05-10T05:54:29;9.43;;;4.03;;
80231;SDS011;69541;42.138;24.742;2023-05-10T05:56:59;13.57;;;4.63;;
80231;SDS011;69541;42.138;24.742;2023-05-10T05:59:25;16.42;;;4.80;;
80231;SDS011;69541;42.138;24.742;2023-05-10T06:01:51;8.88;;;3.92;;
80231;SDS011;69541;42.138;24.742;2023-05-10T06:04:17;13.82;;;4.35;;
80231;SDS011;69541;42.138;24.742;2023-05-10T06:06:43;9.93;;;4.20;;
80231;SDS011;69541;42.138;24.742;2023-05-10T06:09:09;9.60;;;4.10;;
80231;SDS011;69541;42.138;24.742;2023-05-10T06:11:36;16.23;;;4.28;;
80231;SDS011;69541;42.138;24.742;2023-05-10T06:14:02;9.70;;;3.83;;
80231;SDS011;69541;42.138;24.742;2023-05-10T06:16:32;8.35;;;4.07;;
80231;SDS011;69541;42.138;24.742;2023-05-10T06:18:58;14.68;;;4.60;;
80231;SDS011;69541;42.138;24.742;2023-05-10T06:21:24;11.43;;;3.70;;
80231;SDS011;69541;42.138;24.742;2023-05-10T06:23:50;11.45;;;4.18;;
80231;SDS011;69541;42.138;24.742;2023-05-10T06:26:16;9.27;;;4.15;;
80231;SDS011;69541;42.138;24.742;2023-05-10T06:28:42;8.45;;;3.45;;
80231;SDS011;69541;42.138;24.742;2023-05-10T06:31:07;8.82;;;3.90;;
80231;SDS011;69541;42.138;24.742;2023-05-10T06:33:33;10.68;;;3.83;;
80231;SDS011;69541;42.138;24.742;2023-05-10T06:35:59;9.00;;;3.72;;
80231;SDS011;69541;42.138;24.742;2023-05-10T06:38:25;9.57;;;3.80;;
80231;SDS011;69541;42.138;24.742;2023-05-10T06:40:51;9.48;;;4.30;;
80231;SDS011;69541;42.138;24.742;2023-05-10T06:43:16;10.15;;;4.18;;
80231;SDS011;69541;42.138;24.742;2023-05-10T06:45:42;8.65;;;3.65;;
80231;SDS011;69541;42.138;24.742;2023-05-10T06:48:08;10.48;;;4.25;;
80231;SDS011;69541;42.138;24.742;2023-05-10T06:50:33;6.40;;;3.80;;
80231;SDS011;69541;42.138;24.742;2023-05-10T06:52:59;11.63;;;4.05;;
80231;SDS011;69541;42.138;24.742;2023-05-10T06:55:26;9.75;;;3.90;;
80231;SDS011;69541;42.138;24.742;2023-05-10T06:57:53;10.60;;;3.50;;
80231;SDS011;69541;42.138;24.742;2023-05-10T07:00:19;7.05;;;3.60;;
80231;SDS011;69541;42.138;24.742;2023-05-10T07:02:45;8.95;;;3.75;;
80231;SDS011;69541;42.138;24.742;2023-05-10T07:05:11;6.05;;;3.63;;
80231;SDS011;69541;42.138;24.742;2023-05-10T07:07:37;7.53;;;3.70;;
80231;SDS011;69541;42.138;24.742;2023-05-10T07:10:03;6.32;;;3.30;;
80231;SDS011;69541;42.138;24.742;2023-05-10T07:12:29;8.80;;;3.67;;
80231;SDS011;69541;42.138;24.742;2023-05-10T07:14:55;12.32;;;3.55;;
80231;SDS011;69541;42.138;24.742;2023-05-10T07:17:20;8.48;;;3.50;;
80231;SDS011;69541;42.138;24.742;2023-05-10T07:19:46;10.05;;;3.65;;
80231;SDS011;69541;42.138;24.742;2023-05-10T07:22:12;12.82;;;3.83;;
80231;SDS011;69541;42.138;24.742;2023-05-10T07:24:38;13.15;;;3.50;;
80231;SDS011;69541;42.138;24.742;2023-05-10T07:27:04;5.70;;;3.70;;
80231;SDS011;69541;42.138;24.742;2023-05-10T07:29:30;5.45;;;3.35;;
80231;SDS011;69541;42.138;24.742;2023-05-10T07:31:56;9.45;;;3.33;;
80231;SDS011;69541;42.138;24.742;2023-05-10T07:34:21;10.20;;;3.58;;
80231;SDS011;69541;42.138;24.742;2023-05-10T07:36:47;13.18;;;3.30;;
80231;SDS011;69541;42.138;24.742;2023-05-10T07:39:13;6.57;;;3.30;;
80231;SDS011;69541;42.138;24.742;2023-05-10T07:41:39;10.25;;;3.33;;
80231;SDS011;69541;42.138;24.742;2023-05-10T07:44:05;6.43;;;3.67;;
80231;SDS011;69541;42.138;24.742;2023-05-10T07:46:31;7.30;;;3.30;;
80231;SDS011;69541;42.138;24.742;2023-05-10T07:48:57;8.50;;;3.28;;
80231;SDS011;69541;42.138;24.742;2023-05-10T07:51:22;7.95;;;3.45;;
80231;SDS011;69541;42.138;24.742;2023-05-10T07:53:48;4.72;;;3.28;;
80231;SDS011;69541;42.138;24.742;2023-05-10T07:56:30;14.88;;;3.38;;
80231;SDS011;69541;42.138;24.742;2023-05-10T07:58:57;18.80;;;3.67;;
80231;SDS011;69541;42.138;24.742;2023-05-10T08:01:30;19.92;;;4.20;;
80231;SDS011;69541;42.138;24.742;2023-05-10T08:03:57;22.27;;;3.83;;
80231;SDS011;69541;42.138;24.742;2023-05-10T08:06:23;13.13;;;3.80;;
80231;SDS011;69541;42.138;24.742;2023-05-10T08:08:48;32.13;;;4.47;;
80231;SDS011;69541;42.138;24.742;2023-05-10T08:11:18;20.52;;;4.00;;
80231;SDS011;69541;42.138;24.742;2023-05-10T08:13:45;12.90;;;3.60;;
80231;SDS011;69541;42.138;24.742;2023-05-10T08:16:12;18.60;;;3.80;;
80231;SDS011;69541;42.138;24.742;2023-05-10T08:18:38;18.58;;;3.67;;
80231;SDS011;69541;42.138;24.742;2023-05-10T08:21:04;19.35;;;4.57;;
80231;SDS011;69541;42.138;24.742;2023-05-10T08:23:30;15.65;;;3.42;;
80231;SDS011;69541;42.138;24.742;2023-05-10T08:25:55;10.75;;;3.65;;
80231;SDS011;69541;42.138;24.742;2023-05-10T08:28:21;11.32;;;3.55;;
80231;SDS011;69541;42.138;24.742;2023-05-10T08:30:47;10.25;;;3.67;;
80231;SDS011;69541;42.138;24.742;2023-05-10T08:33:14;15.05;;;3.67;;
80231;SDS011;69541;42.138;24.742;2023-05-10T08:35:40;14.75;;;3.90;;
80231;SDS011;69541;42.138;24.742;2023-05-10T08:38:06;11.65;;;3.85;;
80231;SDS011;69541;42.138;24.742;2023-05-10T08:40:32;16.50;;;3.42;;
80231;SDS011;69541;42.138;24.742;2023-05-10T08:43:04;19.52;;;3.95;;
80231;SDS011;69541;42.138;24.742;2023-05-10T08:45:38;14.70;;;4.18;;
80231;SDS011;69541;42.138;24.742;2023-05-10T08:48:05;13.38;;;3.83;;
80231;SDS011;69541;42.138;24.742;2023-05-10T08:50:33;17.55;;;3.67;;
80231;SDS011;69541;42.138;24.742;2023-05-10T08:53:04;13.18;;;3.50;;
80231;SDS011;69541;42.138;24.742;2023-05-10T08:55:36;29.23;;;3.58;;
80231;SDS011;69541;42.138;24.742;2023-05-10T08:58:07;11.52;;;3.33;;
80231;SDS011;69541;42.138;24.742;2023-05-10T09:00:34;8.75;;;3.47;;
80231;SDS011;69541;42.138;24.742;2023-05-10T09:03:00;8.80;;;3.50;;
80231;SDS011;69541;42.138;24.742;2023-05-10T09:05:28;8.82;;;3.55;;
80231;SDS011;69541;42.138;24.742;2023-05-10T09:07:54;8.10;;;3.22;;
80231;SDS011;69541;42.138;24.742;2023-05-10T09:10:20;7.70;;;3.60;;
80231;SDS011;69541;42.138;24.742;2023-05-10T09:12:50;10.35;;;3.22;;
80231;SDS011;69541;42.138;24.742;2023-05-10T09:15:16;12.85;;;3.28;;
80231;SDS011;69541;42.138;24.742;2023-05-10T09:17:44;9.82;;;3.08;;
80231;SDS011;69541;42.138;24.742;2023-05-10T09:20:10;10.38;;;3.40;;
80231;SDS011;69541;42.138;24.742;2023-05-10T09:22:36;11.48;;;3.17;;
80231;SDS011;69541;42.138;24.742;2023-05-10T09:25:06;9.70;;;3.35;;
80231;SDS011;69541;42.138;24.742;2023-05-10T09:27:32;11.52;;;3.47;;
80231;SDS011;69541;42.138;24.742;2023-05-10T09:29:58;14.40;;;4.25;;
80231;SDS011;69541;42.138;24.742;2023-05-10T09:32:43;8.70;;;3.47;;
80231;SDS011;69541;42.138;24.742;2023-05-10T09:35:11;5.97;;;3.17;;
80231;SDS011;69541;42.138;24.742;2023-05-10T09:37:45;8.27;;;2.88;;
80231;SDS011;69541;42.138;24.742;2023-05-10T09:40:13;9.82;;;3.22;;
80231;SDS011;69541;42.138;24.742;2023-05-10T09:42:41;7.13;;;3.40;;
80231;SDS011;69541;42.138;24.742;2023-05-10T09:45:15;10.63;;;3.60;;
80231;SDS011;69541;42.138;24.742;2023-05-10T09:47:40;8.00;;;3.10;;
80231;SDS011;69541;42.138;24.742;2023-05-10T09:50:06;9.52;;;3.60;;
80231;SDS011;69541;42.138;24.742;2023-05-10T09:55:23;7.32;;;3.30;;
80231;SDS011;69541;42.138;24.742;2023-05-10T09:57:58;16.77;;;3.85;;
80231;SDS011;69541;42.138;24.742;2023-05-10T10:00:25;6.60;;;3.30;;
80231;SDS011;69541;42.138;24.742;2023-05-10T10:02:55;6.65;;;3.20;;
80231;SDS011;69541;42.138;24.742;2023-05-10T10:05:34;5.75;;;3.38;;
80231;SDS011;69541;42.138;24.742;2023-05-10T10:08:04;7.47;;;3.30;;
80231;SDS011;69541;42.138;24.742;2023-05-10T10:10:30;7.53;;;3.60;;
80231;SDS011;69541;42.138;24.742;2023-05-10T10:12:57;6.80;;;3.30;;
80231;SDS011;69541;42.138;24.742;2023-05-10T10:15:23;8.40;;;3.30;;
80231;SDS011;69541;42.138;24.742;2023-05-10T10:17:50;5.35;;;3.05;;
80231;SDS011;69541;42.138;24.742;2023-05-10T10:20:17;7.63;;;3.15;;
80231;SDS011;69541;42.138;24.742;2023-05-10T10:22:43;8.00;;;3.55;;
80231;SDS011;69541;42.138;24.742;2023-05-10T10:25:15;6.78;;;3.80;;
80231;SDS011;69541;42.138;24.742;2023-05-10T10:30:40;8.82;;;3.63;;
80231;SDS011;69541;42.138;24.742;2023-05-10T10:35:57;10.15;;;3.65;;
80231;SDS011;69541;42.138;24.742;2023-05-10T10:38:25;6.35;;;3.17;;
80231;SDS011;69541;42.138;24.742;2023-05-10T10:41:10;7.22;;;3.88;;
80231;SDS011;69541;42.138;24.742;2023-05-10T10:44:21;6.93;;;3.55;;
80231;SDS011;69541;42.138;24.742;2023-05-10T11:05:40;6.57;;;3.42;;
80231;SDS011;69541;42.138;24.742;2023-05-10T11:08:07;6.78;;;3.95;;
80231;SDS011;69541;42.138;24.742;2023-05-10T11:18:36;8.02;;;3.63;;
80231;SDS011;69541;42.138;24.742;2023-05-10T11:21:02;6.43;;;3.47;;
80231;SDS011;69541;42.138;24.742;2023-05-10T11:23:47;6.75;;;3.47;;
80231;SDS011;69541;42.138;24.742;2023-05-10T11:26:21;6.47;;;3.50;;
80231;SDS011;69541;42.138;24.742;2023-05-10T11:28:50;8.65;;;3.70;;
80231;SDS011;69541;42.138;24.742;2023-05-10T11:31:19;7.30;;;4.10;;
80231;SDS011;69541;42.138;24.742;2023-05-10T11:33:48;7.82;;;3.67;;
80231;SDS011;69541;42.138;24.742;2023-05-10T11:36:23;10.52;;;4.05;;
80231;SDS011;69541;42.138;24.742;2023-05-10T11:38:51;10.98;;;3.85;;
80231;SDS011;69541;42.138;24.742;2023-05-10T11:41:17;7.43;;;3.40;;
80231;SDS011;69541;42.138;24.742;2023-05-10T11:43:46;7.40;;;3.80;;
80231;SDS011;69541;42.138;24.742;2023-05-10T11:46:14;11.80;;;3.85;;
80231;SDS011;69541;42.138;24.742;2023-05-10T11:48:41;7.32;;;3.70;;
80231;SDS011;69541;42.138;24.742;2023-05-10T11:51:08;5.78;;;3.50;;
80231;SDS011;69541;42.138;24.742;2023-05-10T11:53:34;8.20;;;3.65;;
80231;SDS011;69541;42.138;24.742;2023-05-10T11:56:07;9.43;;;3.55;;
80231;SDS011;69541;42.138;24.742;2023-05-10T11:58:35;7.10;;;3.47;;
80231;SDS011;69541;42.138;24.742;2023-05-10T12:01:02;12.38;;;3.70;;
80231;SDS011;69541;42.138;24.742;2023-05-10T12:03:29;6.25;;;3.55;;
80231;SDS011;69541;42.138;24.742;2023-05-10T12:05:55;5.45;;;3.45;;
80231;SDS011;69541;42.138;24.742;2023-05-10T12:08:23;11.98;;;3.80;;
80231;SDS011;69541;42.138;24.742;2023-05-10T12:10:50;5.53;;;3.70;;
80231;SDS011;69541;42.138;24.742;2023-05-10T12:13:16;7.00;;;3.80;;
80231;SDS011;69541;42.138;24.742;2023-05-10T12:15:44;9.68;;;3.95;;
80231;SDS011;69541;42.138;24.742;2023-05-10T12:18:10;10.30;;;3.85;;
80231;SDS011;69541;42.138;24.742;2023-05-10T12:20:37;7.20;;;3.83;;
80231;SDS011;69541;42.138;24.742;2023-05-10T12:23:03;9.90;;;3.72;;
80231;SDS011;69541;42.138;24.742;2023-05-10T12:25:31;11.18;;;4.13;;
80231;SDS011;69541;42.138;24.742;2023-05-10T12:27:58;7.35;;;3.72;;
80231;SDS011;69541;42.138;24.742;2023-05-10T12:30:28;10.02;;;3.70;;
80231;SDS011;69541;42.138;24.742;2023-05-10T12:33:00;8.10;;;3.60;;
80231;SDS011;69541;42.138;24.742;2023-05-10T12:35:49;6.13;;;3.63;;
80231;SDS011;69541;42.138;24.742;2023-05-10T12:41:07;8.50;;;3.70;;
80231;SDS011;69541;42.138;24.742;2023-05-10T12:43:34;7.40;;;3.75;;
80231;SDS011;69541;42.138;24.742;2023-05-10T12:46:19;6.32;;;3.75;;
80231;SDS011;69541;42.138;24.742;2023-05-10T12:48:45;5.55;;;3.50;;
80231;SDS011;69541;42.138;24.742;2023-05-10T12:51:12;8.32;;;3.70;;
80231;SDS011;69541;42.138;24.742;2023-05-10T12:53:40;11.32;;;4.00;;
80231;SDS011;69541;42.138;24.742;2023-05-10T12:56:06;11.93;;;3.90;;
80231;SDS011;69541;42.138;24.742;2023-05-10T12:58:32;10.38;;;3.97;;
80231;SDS011;69541;42.138;24.742;2023-05-10T13:00:58;7.60;;;3.88;;
80231;SDS011;69541;42.138;24.742;2023-05-10T13:03:24;9.25;;;4.18;;
80231;SDS011;69541;42.138;24.742;2023-05-10T13:05:50;8.57;;;4.00;;
80231;SDS011;69541;42.138;24.742;2023-05-10T13:08:15;7.50;;;4.40;;
80231;SDS011;69541;42.138;24.742;2023-05-10T13:10:41;7.05;;;4.40;;
80231;SDS011;69541;42.138;24.742;2023-05-10T13:13:07;9.18;;;4.20;;
80231;SDS011;69541;42.138;24.742;2023-05-10T13:15:33;7.18;;;4.00;;
80231;SDS011;69541;42.138;24.742;2023-05-10T13:17:59;6.38;;;3.78;;
80231;SDS011;69541;42.138;24.742;2023-05-10T13:20:25;12.07;;;4.28;;
80231;SDS011;69541;42.138;24.742;2023-05-10T13:22:51;7.95;;;4.38;;
80231;SDS011;69541;42.138;24.742;2023-05-10T13:25:17;6.82;;;4.35;;
80231;SDS011;69541;42.138;24.742;2023-05-10T13:27:43;5.80;;;3.78;;
80231;SDS011;69541;42.138;24.742;2023-05-10T13:30:08;8.40;;;4.05;;
80231;SDS011;69541;42.138;24.742;2023-05-10T13:32:36;7.45;;;4.15;;
80231;SDS011;69541;42.138;24.742;2023-05-10T13:35:02;5.05;;;3.75;;
80231;SDS011;69541;42.138;24.742;2023-05-10T13:37:28;7.38;;;4.10;;
80231;SDS011;69541;42.138;24.742;2023-05-10T13:39:55;7.38;;;4.13;;
80231;SDS011;69541;42.138;24.742;2023-05-10T13:42:21;6.00;;;4.10;;
80231;SDS011;69541;42.138;24.742;2023-05-10T13:44:48;11.27;;;4.28;;
80231;SDS011;69541;42.138;24.742;2023-05-10T13:47:17;6.90;;;3.70;;
80231;SDS011;69541;42.138;24.742;2023-05-10T13:49:42;5.85;;;4.20;;
80231;SDS011;69541;42.138;24.742;2023-05-10T13:52:08;5.70;;;4.00;;
80231;SDS011;69541;42.138;24.742;2023-05-10T13:54:35;7.57;;;4.93;;
80231;SDS011;69541;42.138;24.742;2023-05-10T13:57:02;5.80;;;4.30;;
80231;SDS011;69541;42.138;24.742;2023-05-10T13:59:28;6.53;;;4.22;;
80231;SDS011;69541;42.138;24.742;2023-05-10T14:01:54;8.38;;;4.22;;
80231;SDS011;69541;42.138;24.742;2023-05-10T14:04:19;7.53;;;4.75;;
80231;SDS011;69541;42.138;24.742;2023-05-10T14:06:45;8.82;;;5.05;;
80231;SDS011;69541;42.138;24.742;2023-05-10T14:09:11;6.32;;;4.72;;
80231;SDS011;69541;42.138;24.742;2023-05-10T14:11:37;5.18;;;4.45;;
80231;SDS011;69541;42.138;24.742;2023-05-10T14:14:06;7.57;;;4.70;;
80231;SDS011;69541;42.138;24.742;2023-05-10T14:16:32;7.78;;;4.43;;
80231;SDS011;69541;42.138;24.742;2023-05-10T14:18:58;6.72;;;4.60;;
80231;SDS011;69541;42.138;24.742;2023-05-10T14:21:23;6.85;;;4.38;;
80231;SDS011;69541;42.138;24.742;2023-05-10T14:23:49;8.30;;;4.30;;
80231;SDS011;69541;42.138;24.742;2023-05-10T14:26:15;11.50;;;4.80;;
80231;SDS011;69541;42.138;24.742;2023-05-10T14:28:41;6.97;;;4.82;;
80231;SDS011;69541;42.138;24.742;2023-05-10T14:31:06;9.68;;;4.50;;
80231;SDS011;69541;42.138;24.742;2023-05-10T14:33:32;8.90;;;4.57;;
80231;SDS011;69541;42.138;24.742;2023-05-10T14:35:58;6.85;;;4.50;;
80231;SDS011;69541;42.138;24.742;2023-05-10T14:38:24;7.15;;;4.35;;
80231;SDS011;69541;42.138;24.742;2023-05-10T14:40:51;8.50;;;4.63;;
80231;SDS011;69541;42.138;24.742;2023-05-10T14:43:17;9.60;;;4.75;;
80231;SDS011;69541;42.138;24.742;2023-05-10T14:45:42;5.28;;;4.70;;
80231;SDS011;69541;42.138;24.742;2023-05-10T14:48:08;7.22;;;4.50;;
80231;SDS011;69541;42.138;24.742;2023-05-10T14:50:37;8.35;;;4.72;;
80231;SDS011;69541;42.138;24.742;2023-05-10T14:56:00;10.85;;;4.60;;
80231;SDS011;69541;42.138;24.742;2023-05-10T14:58:28;5.78;;;4.38;;
80231;SDS011;69541;42.138;24.742;2023-05-10T15:07:43;9.38;;;4.63;;
80231;SDS011;69541;42.138;24.742;2023-05-10T15:10:09;8.23;;;4.35;;
80231;SDS011;69541;42.138;24.742;2023-05-10T15:12:36;6.53;;;4.63;;
80231;SDS011;69541;42.138;24.742;2023-05-10T15:15:02;7.80;;;4.57;;
80231;SDS011;69541;42.138;24.742;2023-05-10T15:17:28;5.10;;;4.32;;
80231;SDS011;69541;42.138;24.742;2023-05-10T15:19:54;6.88;;;4.43;;
80231;SDS011;69541;42.138;24.742;2023-05-10T15:23:31;7.40;;;4.50;;
80231;SDS011;69541;42.138;24.742;2023-05-10T15:26:00;5.78;;;4.80;;
80231;SDS011;69541;42.138;24.742;2023-05-10T15:28:26;8.23;;;4.93;;
80231;SDS011;69541;42.138;24.742;2023-05-10T15:30:51;7.38;;;4.40;;
80231;SDS011;69541;42.138;24.742;2023-05-10T15:33:17;7.38;;;4.40;;
80231;SDS011;69541;42.138;24.742;2023-05-10T15:35:42;13.25;;;4.88;;
80231;SDS011;69541;42.138;24.742;2023-05-10T15:38:09;7.18;;;4.60;;
80231;SDS011;69541;42.138;24.742;2023-05-10T15:40:34;5.75;;;4.53;;